Aklavik Airport
CYKD : now visible

Airfield :











YOU CAN JOIN US ON...

 
LOGIN :

Register | Disclaimer

   EN    FR    IT 

 









Legend :    VFR   Marginal VFR   IFR   Intensive IFR   Very Intensive IFR
Visi :
Ceiling :
>= 8 km
>= 3000ft
5 to 8 km
1000 to 3000 ft
1500m to 5 km
500 to 1000 ft
800 to 1500m
200 to 500 ft
< 800m
< 200 ft
Symbols :   Thunderstorms  Fog  Heavy snow  Heavy precipitations  Wind > 20 kt






- Airport Elevation : 23 ft
- IATA code : LAK


CYKD - Aklavik

CURRENT METAR :
  • 102200Z 14010KT 15SM OVC012 M18/M20 A3018 RMK SC8 CIG RAG VIS SW 10 SLP224

EXPIRED METARs :
  • 102123Z 15009KT 15SM OVC014 M18/M20 A3018 RMK SC8 VIS SW 10 SLP222
  • 102100Z 14009KT 15SM OVC015 M18/M20 A3018 RMK SC8 VIS SW 10 SLP221
  • 102015Z 13010KT 15SM SCT008 OVC015 M18/M20 A3017 RMK SF3SC5 VIS SW 10 SLP220
  • 102000Z 14008KT 15SM BKN008 OVC019 M18/M20 A3017 RMK ST6SC2 VIS SW 10 SLP219

TAF N/A



MET'MAP, your aeronautical weather chart ! - Copyright ORBIFLY December 2007 - Disclaimer

ORBIFLY MET'MAP TEAM :

Programming & Development : Alexandra Zaïnal
Concept & original design : Baudouin d'Aumeries
Assistance for programming : Marc-Olivier Méhu
Technical & hardware support : Manuel Goepfert

Contact : metmap@orbifly.com




SOURCES & CREDITS :

   NOAA       Earth
Advisory